Pagina principale
METAR-TAF:

METAR-TAF

Aeroporti :

Teodo, Montenegro

latitudine: 42-24N, longitudine: 018-44E, altezza: 5 m

Osservazione

Il bollettino è stato emesso 16 minuti fa, alle 16:00 UTC
Vento 1 kt da nord-ovest
Temperature 34°C
Umidità 32%
Pressione 1012 hPa
Visibilità 10 km o più
Poco nuvoloso ad un'altezza di 5000 ft

METAR: LYTV 181600Z 32001KT 9999 FEW050 34/15 Q1012 NOSIG

Ora: 18:16 (16:16 UTC)

Previsione

Il bollettino è stato emesso 5 ore e 16 minuti fa, alle 11:00 UTC
Previsione valida dal 18 alle 12 UTC al 19 alle 12 UTC
Vento 9 kt da sud-ovest
Visibilità 10 km o più
Poco nuvoloso ad un'altezza di 4000 ft
Probabilità 30% :
Temporaneamente
dal 18 alle 13 UTC al 18 alle 18 UTC
Poco nuvoloso ad un'altezza di 3000 ft, Cumulonembo.
Nubi sparse ad un'altezza di 4000 ft
temporale, pioggia

TAF: LYTV 181100Z 1812/1912 23009KT 9999 FEW040 TX34/1813Z TN20/1903Z PROB30 TEMPO 1813/1818 TSRA FEW030CB SCT040

Osservazioni e previsioni meteorologiche di più di 4000 aeroporti (messaggi METAR e TAF).

Le stazioni disponibili sono rappresentate dai dischi gialli e rossi sulla carta.

Puntare il mouse per vedere il nome della stazione.

Clicca sopra per visualizzare le osservazioni e previsioni meteorologiche.

Per cambiare la mappa : fare clic sui pulsanti verdi con una croce nera per ingrandire, il pulsante verde con un trattino per diminuire, o sulla freccia verde per le mappe adiacenti.


METAR-TAF: